createdAt,value
2018-09-14T00:00:30.093Z,36.07
2018-09-14T00:02:58.639Z,34.27
2018-09-14T00:05:27.229Z,35.87
2018-09-14T00:07:56.283Z,37.37
2018-09-14T00:10:24.980Z,33.13
2018-09-14T00:12:53.794Z,39.07
2018-09-14T00:15:22.323Z,36.37
2018-09-14T00:17:51.121Z,39.27
2018-09-14T00:20:19.735Z,38.77
2018-09-14T00:22:49.535Z,38.60
2018-09-14T00:25:18.136Z,39.43
2018-09-14T00:27:46.800Z,40.00
2018-09-14T00:30:15.341Z,38.00
2018-09-14T00:32:43.900Z,42.87
2018-09-14T00:35:13.323Z,38.13
2018-09-14T00:37:42.033Z,35.13
2018-09-14T00:40:10.582Z,38.17
2018-09-14T00:42:39.132Z,39.93
2018-09-14T00:45:07.671Z,40.23
2018-09-14T00:47:36.346Z,42.17
2018-09-14T00:50:06.323Z,41.30
2018-09-14T00:52:35.929Z,36.17
2018-09-14T00:55:05.649Z,37.37
2018-09-14T00:57:34.739Z,40.47
2018-09-14T01:00:03.219Z,42.10
2018-09-14T01:02:32.018Z,41.60
2018-09-14T01:05:00.606Z,38.67
2018-09-14T01:07:29.188Z,38.90
2018-09-14T01:09:57.706Z,39.07
2018-09-14T01:12:26.309Z,40.07
2018-09-14T01:14:54.811Z,38.83
2018-09-14T01:17:23.517Z,41.20
2018-09-14T01:19:53.106Z,37.97
2018-09-14T01:22:21.590Z,42.67
2018-09-14T01:24:51.006Z,39.60
2018-09-14T01:27:19.536Z,35.17
2018-09-14T01:29:48.864Z,43.00
2018-09-14T01:32:17.374Z,40.47
2018-09-14T01:34:46.165Z,40.17
2018-09-14T01:37:15.145Z,42.10
2018-09-14T01:39:43.923Z,37.63
2018-09-14T01:42:14.081Z,34.47
2018-09-14T01:44:42.617Z,30.37
2018-09-14T01:47:11.335Z,32.37
2018-09-14T01:49:40.236Z,33.97
2018-09-14T01:52:08.848Z,33.77
2018-09-14T01:54:37.615Z,35.90
2018-09-14T01:57:06.454Z,43.23
2018-09-14T01:59:35.689Z,40.07
2018-09-14T02:02:04.316Z,37.40
2018-09-14T02:04:32.931Z,39.33
2018-09-14T02:07:01.684Z,46.40
2018-09-14T02:09:31.196Z,44.13
2018-09-14T02:11:59.779Z,40.03
2018-09-14T02:14:28.355Z,41.27
2018-09-14T02:16:56.781Z,41.27
2018-09-14T02:19:26.226Z,43.13
2018-09-14T02:21:55.519Z,39.50
2018-09-14T02:24:25.155Z,42.10
2018-09-14T02:26:53.647Z,40.07
2018-09-14T02:29:22.225Z,41.60
2018-09-14T02:31:50.744Z,42.97
2018-09-14T02:34:19.253Z,42.03
2018-09-14T02:36:48.089Z,38.93
2018-09-14T02:39:16.643Z,41.00
2018-09-14T02:41:45.507Z,36.13
2018-09-14T02:44:14.503Z,36.97
2018-09-14T02:46:43.007Z,39.20
2018-09-14T02:49:11.554Z,34.87
2018-09-14T02:51:40.261Z,33.60
2018-09-14T02:54:09.411Z,33.90
2018-09-14T02:56:38.505Z,35.37
2018-09-14T02:59:07.711Z,33.67
2018-09-14T03:01:36.357Z,33.43
2018-09-14T03:04:05.658Z,36.47
2018-09-14T03:06:34.308Z,32.30
2018-09-14T03:09:03.723Z,32.00
2018-09-14T03:11:32.866Z,35.60
2018-09-14T03:14:01.335Z,34.37
2018-09-14T03:16:29.817Z,30.90
2018-09-14T03:18:58.364Z,34.47
2018-09-14T03:21:27.527Z,34.00
2018-09-14T03:23:56.080Z,31.70
2018-09-14T03:26:24.553Z,35.40
2018-09-14T03:28:53.669Z,33.20
2018-09-14T03:31:22.439Z,33.17
2018-09-14T03:33:50.981Z,32.27
2018-09-14T03:36:19.535Z,28.07
2018-09-14T03:38:48.056Z,30.93
2018-09-14T03:41:16.579Z,32.63
2018-09-14T03:43:45.099Z,34.40
2018-09-14T03:46:13.675Z,30.23
2018-09-14T03:48:42.174Z,34.50
2018-09-14T03:51:11.354Z,30.53
2018-09-14T03:53:39.879Z,30.47
2018-09-14T03:56:08.424Z,31.63
2018-09-14T03:58:37.054Z,33.13
2018-09-14T04:01:06.259Z,32.30
2018-09-14T04:03:36.184Z,31.13
2018-09-14T04:06:04.781Z,31.13
2018-09-14T04:08:34.537Z,30.10
2018-09-14T04:11:03.011Z,30.10
2018-09-14T04:13:31.508Z,31.13
2018-09-14T04:16:00.320Z,30.43
2018-09-14T04:18:28.811Z,31.27
2018-09-14T04:20:58.807Z,28.27
2018-09-14T04:23:27.925Z,28.60
2018-09-14T04:25:56.593Z,26.07
2018-09-14T04:28:26.008Z,29.50
2018-09-14T04:30:55.111Z,33.47
2018-09-14T04:33:23.701Z,29.27
2018-09-14T04:35:52.223Z,27.27
2018-09-14T04:38:20.858Z,29.70
2018-09-14T04:40:49.795Z,27.33
2018-09-14T04:43:18.287Z,27.27
2018-09-14T04:45:46.854Z,31.27
2018-09-14T04:48:15.577Z,29.37
2018-09-14T04:50:44.548Z,30.87
2018-09-14T04:53:13.372Z,28.50
2018-09-14T04:55:41.880Z,28.87
2018-09-14T04:58:10.419Z,26.90
2018-09-14T05:00:38.878Z,27.40
2018-09-14T05:03:07.462Z,28.37
2018-09-14T05:05:36.219Z,29.20
2018-09-14T05:08:04.697Z,29.60
2018-09-14T05:10:33.761Z,26.13
2018-09-14T05:13:02.284Z,28.70
2018-09-14T05:15:30.873Z,26.73
2018-09-14T05:18:01.210Z,28.13
2018-09-14T05:20:29.764Z,29.17
2018-09-14T05:22:59.108Z,28.47
2018-09-14T05:25:27.678Z,26.57
2018-09-14T05:27:56.379Z,26.20
2018-09-14T05:30:24.883Z,27.33
2018-09-14T05:32:53.733Z,28.60
2018-09-14T05:35:22.260Z,27.80
2018-09-14T05:37:51.090Z,27.03
2018-09-14T05:40:19.712Z,28.07
2018-09-14T05:42:48.242Z,25.67
2018-09-14T05:45:16.869Z,29.83
2018-09-14T05:47:45.651Z,23.70
2018-09-14T05:50:14.755Z,23.77
2018-09-14T05:52:43.902Z,28.07
2018-09-14T05:55:12.494Z,22.57
2018-09-14T05:57:43.918Z,28.97
2018-09-14T06:00:12.606Z,26.30
2018-09-14T06:02:41.910Z,23.47
2018-09-14T06:05:10.430Z,27.20
2018-09-14T06:07:38.939Z,25.50
2018-09-14T06:10:08.106Z,26.63
2018-09-14T06:12:36.567Z,26.17
2018-09-14T06:15:04.994Z,22.47
2018-09-14T06:17:33.456Z,23.63
2018-09-14T06:20:01.954Z,26.47
2018-09-14T06:22:30.459Z,24.30
2018-09-14T06:24:58.937Z,23.93
2018-09-14T06:27:27.419Z,24.33
2018-09-14T06:29:55.899Z,25.50
2018-09-14T06:32:24.929Z,24.00
2018-09-14T06:34:53.518Z,21.47
2018-09-14T06:37:22.052Z,22.13
2018-09-14T06:39:53.022Z,22.00
2018-09-14T06:42:21.684Z,24.50
2018-09-14T06:44:50.398Z,23.17
2018-09-14T06:47:18.891Z,21.20
2018-09-14T06:49:47.420Z,22.20
2018-09-14T06:52:16.496Z,24.93
2018-09-14T06:54:45.585Z,22.43
2018-09-14T06:57:14.395Z,22.60
2018-09-14T06:59:43.390Z,21.97
2018-09-14T07:02:11.984Z,23.33
2018-09-14T07:04:40.632Z,19.63
2018-09-14T07:07:09.839Z,20.53
2018-09-14T07:09:38.393Z,18.03
2018-09-14T07:12:06.937Z,19.07
2018-09-14T07:14:35.427Z,21.00
2018-09-14T07:17:03.928Z,21.80
2018-09-14T07:19:33.266Z,21.43
2018-09-14T07:22:01.803Z,23.43
2018-09-14T07:24:30.394Z,25.17
2018-09-14T07:26:59.016Z,21.93
2018-09-14T07:29:27.557Z,19.40
2018-09-14T07:31:56.176Z,22.07
2018-09-14T07:34:24.641Z,18.97
2018-09-14T07:36:53.259Z,16.00
2018-09-14T07:39:22.036Z,16.07
2018-09-14T07:41:50.722Z,17.47
2018-09-14T07:44:20.378Z,18.77
2018-09-14T07:46:50.384Z,16.03
2018-09-14T07:49:18.876Z,18.33
2018-09-14T07:51:47.425Z,20.03
2018-09-14T07:54:16.020Z,17.00
2018-09-14T07:56:44.566Z,18.77
2018-09-14T07:59:13.700Z,17.43
2018-09-14T08:01:43.717Z,16.40
2018-09-14T08:04:12.322Z,21.17
2018-09-14T08:06:40.878Z,18.43
2018-09-14T08:09:11.650Z,16.13
2018-09-14T08:11:40.094Z,20.37
2018-09-14T08:14:09.093Z,17.33
2018-09-14T08:16:37.827Z,15.33
2018-09-14T08:19:06.901Z,17.90
2018-09-14T08:21:35.723Z,20.10
2018-09-14T08:24:05.155Z,14.17
2018-09-14T08:26:34.699Z,15.33
2018-09-14T08:29:03.639Z,22.90
2018-09-14T08:31:32.141Z,19.57
2018-09-14T08:34:01.382Z,20.00
2018-09-14T08:36:29.807Z,14.77
2018-09-14T08:38:58.271Z,18.33
2018-09-14T08:41:26.793Z,14.57
2018-09-14T08:43:55.331Z,16.07
2018-09-14T08:46:23.846Z,17.43
2018-09-14T08:48:52.445Z,14.20
2018-09-14T08:51:21.523Z,11.90
2018-09-14T08:53:50.062Z,11.30
2018-09-14T08:56:18.546Z,11.83
2018-09-14T08:58:47.108Z,11.47
2018-09-14T09:01:15.583Z,8.50
2018-09-14T09:03:44.719Z,6.47
2018-09-14T09:06:14.249Z,7.23
2018-09-14T09:08:42.788Z,8.17
2018-09-14T09:11:11.489Z,7.77
2018-09-14T09:13:40.005Z,9.47
2018-09-14T09:16:09.015Z,6.07
2018-09-14T09:18:37.521Z,7.37
2018-09-14T09:21:05.994Z,5.80
2018-09-14T09:23:34.478Z,9.27
2018-09-14T09:26:03.217Z,7.47
2018-09-14T09:28:32.307Z,5.50
2018-09-14T09:31:01.637Z,6.27
2018-09-14T09:33:30.214Z,9.27
2018-09-14T09:35:58.722Z,5.17
2018-09-14T09:38:27.404Z,6.10
2018-09-14T09:40:55.915Z,8.80
2018-09-14T09:43:24.500Z,6.87
2018-09-14T09:45:53.010Z,5.73
2018-09-14T09:48:21.497Z,6.57
2018-09-14T09:50:50.038Z,6.03
2018-09-14T09:53:18.501Z,5.83
2018-09-14T09:55:47.039Z,7.23
2018-09-14T09:58:16.695Z,6.43
2018-09-14T10:00:50.631Z,5.70
2018-09-14T10:03:24.573Z,4.47
2018-09-14T10:06:01.180Z,7.63
2018-09-14T10:08:30.200Z,5.67
2018-09-14T10:10:58.638Z,5.60
2018-09-14T10:13:27.892Z,5.63
2018-09-14T10:15:56.462Z,5.50
2018-09-14T10:18:25.074Z,5.60
2018-09-14T10:20:53.785Z,5.77
2018-09-14T10:23:23.733Z,4.50
2018-09-14T10:25:52.250Z,4.07
2018-09-14T10:28:21.282Z,5.03
2018-09-14T10:30:50.139Z,5.50
2018-09-14T10:33:18.793Z,4.83
2018-09-14T10:35:47.903Z,6.17
2018-09-14T10:38:16.474Z,7.33
2018-09-14T10:40:45.458Z,7.57
2018-09-14T10:43:14.677Z,7.90
2018-09-14T10:45:43.253Z,9.70
2018-09-14T10:48:13.645Z,9.67
2018-09-14T10:50:42.238Z,7.40
2018-09-14T10:53:10.895Z,8.30
2018-09-14T10:55:40.100Z,7.37
2018-09-14T10:58:08.592Z,8.70
2018-09-14T11:00:37.101Z,8.57
2018-09-14T11:03:05.650Z,9.53
2018-09-14T11:05:35.585Z,8.50
2018-09-14T11:08:05.559Z,7.90
2018-09-14T11:10:34.180Z,7.60
2018-09-14T11:13:02.735Z,7.57
2018-09-14T11:15:31.786Z,8.27
2018-09-14T11:18:00.753Z,8.77
2018-09-14T11:20:29.649Z,7.43
2018-09-14T11:22:58.168Z,7.50
2018-09-14T11:25:26.891Z,7.83
2018-09-14T11:27:55.698Z,7.87
2018-09-14T11:30:24.206Z,8.90
2018-09-14T11:32:52.795Z,7.37
2018-09-14T11:35:21.316Z,7.83
2018-09-14T11:37:50.773Z,8.10
2018-09-14T11:40:19.155Z,7.97
2018-09-14T11:42:47.689Z,7.03
2018-09-14T11:45:16.266Z,7.00
2018-09-14T11:47:44.749Z,7.00
2018-09-14T11:50:13.510Z,7.00
2018-09-14T11:52:42.047Z,7.87
2018-09-14T11:55:10.555Z,8.47
2018-09-14T11:57:39.229Z,6.50
2018-09-14T12:00:07.909Z,5.90
2018-09-14T12:02:36.996Z,5.90
2018-09-14T12:05:05.703Z,9.07
2018-09-14T12:07:37.157Z,8.20
2018-09-14T12:10:06.011Z,8.47
2018-09-14T12:12:35.532Z,8.20
2018-09-14T12:15:04.252Z,11.50
2018-09-14T12:17:33.623Z,8.40
2018-09-14T12:20:02.178Z,6.73
2018-09-14T12:22:30.620Z,6.20
2018-09-14T12:24:59.205Z,7.63
2018-09-14T12:27:27.807Z,6.03
2018-09-14T12:29:56.295Z,6.23
2018-09-14T12:32:24.810Z,6.40
2018-09-14T12:34:53.549Z,6.87
2018-09-14T12:37:22.102Z,5.70
2018-09-14T12:39:50.696Z,4.80
2018-09-14T12:42:19.291Z,5.67
2018-09-14T12:44:47.843Z,4.97
2018-09-14T12:47:17.108Z,4.30
2018-09-14T12:49:45.592Z,3.90
2018-09-14T12:52:14.881Z,4.13
2018-09-14T12:54:43.432Z,4.67
2018-09-14T12:57:11.955Z,3.50
2018-09-14T12:59:41.143Z,3.27
2018-09-14T13:02:09.687Z,3.67
2018-09-14T13:04:38.192Z,3.00
2018-09-14T13:07:07.544Z,2.90
2018-09-14T13:09:37.509Z,3.17
2018-09-14T13:12:06.195Z,2.93
2018-09-14T13:14:36.219Z,3.17
2018-09-14T13:17:04.728Z,2.63
2018-09-14T13:19:33.306Z,2.70
2018-09-14T13:22:01.868Z,2.53
2018-09-14T13:24:30.414Z,2.57
2018-09-14T13:26:58.943Z,3.27
2018-09-14T13:29:27.534Z,2.87
2018-09-14T13:31:56.946Z,3.37
2018-09-14T13:34:25.483Z,2.87
2018-09-14T13:36:54.160Z,3.47
2018-09-14T13:39:23.266Z,2.63
2018-09-14T13:41:51.812Z,3.13
2018-09-14T13:44:21.019Z,4.33
2018-09-14T13:46:49.565Z,3.70
2018-09-14T13:49:18.049Z,3.60
2018-09-14T13:51:46.608Z,2.43
2018-09-14T13:54:16.495Z,2.43
2018-09-14T13:56:46.344Z,2.90
2018-09-14T13:59:15.042Z,2.63
2018-09-14T14:01:43.791Z,2.70
2018-09-14T14:04:13.120Z,3.00
2018-09-14T14:06:41.760Z,2.80
2018-09-14T14:09:12.169Z,3.10
2018-09-14T14:11:41.811Z,3.60
2018-09-14T14:14:11.188Z,3.00
2018-09-14T14:16:41.589Z,3.83
2018-09-14T14:19:10.681Z,3.67
2018-09-14T14:21:40.738Z,3.33
2018-09-14T14:24:11.420Z,5.00
2018-09-14T14:26:40.192Z,2.73
2018-09-14T14:29:08.719Z,3.80
2018-09-14T14:31:37.233Z,3.77
2018-09-14T14:34:06.312Z,2.70
2018-09-14T14:36:35.432Z,4.00
2018-09-14T14:39:05.089Z,3.27
2018-09-14T14:41:34.379Z,2.93
2018-09-14T14:44:03.512Z,10.90
2018-09-14T14:46:32.020Z,5.53
2018-09-14T14:49:00.580Z,3.30
2018-09-14T14:51:29.152Z,5.47
2018-09-14T14:53:57.699Z,3.40
2018-09-14T14:56:26.427Z,3.30
2018-09-14T14:58:55.408Z,3.80
2018-09-14T15:01:25.730Z,3.30
2018-09-14T15:03:55.811Z,3.63
2018-09-14T15:06:24.532Z,4.27
2018-09-14T15:08:53.241Z,3.40
2018-09-14T15:11:22.387Z,3.07
2018-09-14T15:13:50.907Z,3.63
2018-09-14T15:16:19.622Z,3.67
2018-09-14T15:18:48.213Z,2.90
2018-09-14T15:21:16.715Z,3.70
2018-09-14T15:23:47.000Z,4.47
2018-09-14T15:26:15.520Z,5.53
2018-09-14T15:28:44.067Z,4.73
2018-09-14T15:31:13.547Z,9.80
2018-09-14T15:33:42.135Z,4.77
2018-09-14T15:36:10.723Z,4.17
2018-09-14T15:38:39.339Z,4.87
2018-09-14T15:41:07.835Z,6.10
2018-09-14T15:43:36.514Z,6.40
2018-09-14T15:46:05.082Z,4.43
2018-09-14T15:48:33.663Z,4.80
2018-09-14T15:51:02.788Z,4.70
2018-09-14T15:53:32.511Z,7.67
2018-09-14T15:56:01.152Z,5.30
2018-09-14T15:58:29.816Z,5.20
2018-09-14T16:00:59.677Z,12.30
2018-09-14T16:03:28.236Z,5.70
2018-09-14T16:05:56.822Z,5.57
2018-09-14T16:08:25.900Z,4.40
2018-09-14T16:10:54.514Z,6.13
2018-09-14T16:13:23.023Z,5.27
2018-09-14T16:15:51.644Z,5.03
2018-09-14T16:18:20.740Z,5.67
2018-09-14T16:20:49.233Z,4.67
2018-09-14T16:23:17.747Z,3.93
2018-09-14T16:25:46.223Z,4.43
2018-09-14T16:28:14.761Z,5.03
2018-09-14T16:30:44.679Z,4.30
2018-09-14T16:33:13.377Z,4.20
2018-09-14T16:35:41.820Z,5.63
2018-09-14T16:38:10.376Z,4.37
2018-09-14T16:40:39.113Z,6.30
2018-09-14T16:43:07.628Z,4.77
2018-09-14T16:45:36.747Z,4.43
2018-09-14T16:48:05.231Z,5.43
2018-09-14T16:50:33.778Z,6.80
2018-09-14T16:53:02.551Z,8.20
2018-09-14T16:55:32.004Z,6.30
2018-09-14T16:58:00.503Z,6.27
2018-09-14T17:00:29.119Z,5.93
2018-09-14T17:02:57.736Z,6.47
2018-09-14T17:05:26.215Z,6.10
2018-09-14T17:07:55.791Z,6.27
2018-09-14T17:10:26.473Z,5.47
2018-09-14T17:12:55.062Z,5.97
2018-09-14T17:15:23.575Z,7.50
2018-09-14T17:17:52.262Z,5.77
2018-09-14T17:20:21.038Z,7.20
2018-09-14T17:22:50.519Z,7.80
2018-09-14T17:25:19.272Z,6.27
2018-09-14T17:27:47.869Z,5.80
2018-09-14T17:30:16.410Z,5.60
2018-09-14T17:32:45.464Z,6.07
2018-09-14T17:35:14.909Z,6.63
2018-09-14T17:37:43.626Z,5.47
2018-09-14T17:40:12.162Z,5.30
2018-09-14T17:42:41.334Z,5.93
2018-09-14T17:45:10.054Z,5.83
2018-09-14T17:47:39.396Z,5.97
2018-09-14T17:50:08.091Z,6.23
2018-09-14T17:52:36.787Z,6.37
2018-09-14T17:55:05.280Z,7.90
2018-09-14T17:57:34.102Z,5.90
2018-09-14T18:00:03.434Z,5.73
2018-09-14T18:02:32.003Z,5.50
2018-09-14T18:05:00.535Z,5.70
2018-09-14T18:07:29.017Z,5.70
2018-09-14T18:09:57.480Z,6.97
2018-09-14T18:12:25.958Z,5.60
2018-09-14T18:14:54.989Z,6.83
2018-09-14T18:17:24.404Z,7.33
2018-09-14T18:19:53.455Z,6.47
2018-09-14T18:22:22.116Z,6.90
2018-09-14T18:24:50.641Z,5.47
2018-09-14T18:27:19.276Z,5.70
2018-09-14T18:29:47.820Z,6.20
2018-09-14T18:32:16.293Z,5.40
2018-09-14T18:34:44.771Z,5.53
2018-09-14T18:37:13.920Z,8.00
2018-09-14T18:39:42.559Z,6.97
2018-09-14T18:42:11.035Z,6.67
2018-09-14T18:44:39.509Z,7.27
2018-09-14T18:47:08.095Z,9.90
2018-09-14T18:49:36.657Z,7.90
2018-09-14T18:52:05.228Z,6.77
2018-09-14T18:54:34.771Z,6.47
2018-09-14T18:57:03.889Z,6.20
2018-09-14T18:59:32.488Z,6.20
2018-09-14T19:02:01.412Z,7.23
2018-09-14T19:04:29.849Z,8.60
2018-09-14T19:06:58.515Z,6.50
2018-09-14T19:09:27.449Z,7.00
2018-09-14T19:11:55.987Z,6.23
2018-09-14T19:14:24.552Z,7.13
2018-09-14T19:16:53.667Z,6.37
2018-09-14T19:19:23.164Z,6.33
2018-09-14T19:21:52.060Z,6.03
2018-09-14T19:24:20.536Z,5.80
2018-09-14T19:26:49.019Z,6.63
2018-09-14T19:29:17.455Z,6.77
2018-09-14T19:31:46.091Z,8.30
2018-09-14T19:34:15.274Z,6.47
2018-09-14T19:36:43.747Z,8.67
2018-09-14T19:39:14.430Z,6.20
2018-09-14T19:41:42.939Z,6.23
2018-09-14T19:44:11.386Z,7.67
2018-09-14T19:46:39.875Z,6.17
2018-09-14T19:49:08.376Z,6.87
2018-09-14T19:51:37.744Z,7.37
2018-09-14T19:54:06.680Z,7.60
2018-09-14T19:56:36.155Z,6.83
2018-09-14T19:59:04.708Z,8.70
2018-09-14T20:01:33.290Z,6.43
2018-09-14T20:04:01.823Z,6.43
2018-09-14T20:06:30.304Z,8.30
2018-09-14T20:08:58.877Z,6.33
2018-09-14T20:11:27.452Z,6.60
2018-09-14T20:13:55.964Z,7.13
2018-09-14T20:16:24.424Z,7.57
2018-09-14T20:18:53.724Z,7.33
2018-09-14T20:21:22.222Z,7.57
2018-09-14T20:23:51.528Z,9.70
2018-09-14T20:26:20.063Z,8.73
2018-09-14T20:28:48.676Z,8.07
2018-09-14T20:31:18.260Z,7.23
2018-09-14T20:33:46.771Z,7.77
2018-09-14T20:36:15.565Z,6.57
2018-09-14T20:38:44.015Z,7.63
2018-09-14T20:41:12.555Z,6.97
2018-09-14T20:43:41.612Z,10.27
2018-09-14T20:46:10.059Z,6.90
2018-09-14T20:48:38.752Z,7.03
2018-09-14T20:51:07.246Z,7.80
2018-09-14T20:53:36.459Z,6.67
2018-09-14T20:56:05.007Z,7.87
2018-09-14T20:58:34.232Z,8.53
2018-09-14T21:01:02.706Z,7.00
2018-09-14T21:03:32.039Z,7.60
2018-09-14T21:06:00.531Z,6.63
2018-09-14T21:08:29.142Z,10.13
2018-09-14T21:10:57.631Z,7.10
2018-09-14T21:13:26.146Z,7.30
2018-09-14T21:15:55.411Z,6.73
2018-09-14T21:18:25.300Z,6.70
2018-09-14T21:20:54.228Z,6.90
2018-09-14T21:23:22.811Z,6.40
2018-09-14T21:25:51.540Z,7.30
2018-09-14T21:28:20.039Z,6.57
2018-09-14T21:30:49.430Z,7.50
2018-09-14T21:33:18.610Z,6.90
2018-09-14T21:35:47.127Z,6.53
2018-09-14T21:38:15.650Z,6.87
2018-09-14T21:40:44.097Z,7.27
2018-09-14T21:43:12.579Z,8.80
2018-09-14T21:45:41.093Z,8.30
2018-09-14T21:48:09.703Z,9.33
2018-09-14T21:50:38.819Z,7.00
2018-09-14T21:53:07.440Z,9.37
2018-09-14T21:55:35.926Z,6.60
2018-09-14T21:58:05.047Z,8.13
2018-09-14T22:00:38.770Z,8.33
2018-09-14T22:03:07.280Z,8.47
2018-09-14T22:05:35.864Z,7.10
2018-09-14T22:08:04.823Z,7.40
2018-09-14T22:10:33.672Z,7.63
2018-09-14T22:13:02.184Z,21.00
2018-09-14T22:15:30.695Z,9.30
2018-09-14T22:17:59.159Z,6.63
2018-09-14T22:20:27.643Z,10.37
2018-09-14T22:22:56.644Z,6.90
2018-09-14T22:25:25.089Z,6.77
2018-09-14T22:27:53.617Z,8.57
2018-09-14T22:30:22.132Z,7.27
2018-09-14T22:32:50.571Z,9.97
2018-09-14T22:35:19.086Z,6.70
2018-09-14T22:37:47.584Z,6.07
2018-09-14T22:40:16.269Z,6.97
2018-09-14T22:42:44.921Z,6.67
2018-09-14T22:45:13.680Z,6.97
2018-09-14T22:47:42.148Z,7.00
2018-09-14T22:50:10.631Z,6.87
2018-09-14T22:52:39.861Z,6.70
2018-09-14T22:55:09.350Z,6.37
2018-09-14T22:57:37.911Z,7.50
2018-09-14T23:00:07.837Z,6.87
2018-09-14T23:02:36.398Z,6.03
2018-09-14T23:05:05.386Z,6.47
2018-09-14T23:07:34.562Z,6.60
2018-09-14T23:10:03.171Z,9.33
2018-09-14T23:12:32.374Z,7.07
2018-09-14T23:15:01.580Z,9.57
2018-09-14T23:17:30.033Z,6.07
2018-09-14T23:19:58.528Z,6.73
2018-09-14T23:22:27.134Z,6.30
2018-09-14T23:24:55.828Z,7.07
2018-09-14T23:27:24.338Z,8.37
2018-09-14T23:29:53.037Z,7.07
2018-09-14T23:32:22.292Z,7.67
2018-09-14T23:34:50.807Z,6.67
2018-09-14T23:37:19.699Z,7.33
2018-09-14T23:39:48.228Z,6.20
2018-09-14T23:42:16.787Z,6.67
2018-09-14T23:44:45.315Z,7.83
2018-09-14T23:47:15.469Z,6.60
2018-09-14T23:49:44.123Z,10.73
2018-09-14T23:52:13.324Z,8.57
2018-09-14T23:54:41.888Z,8.80
2018-09-14T23:57:10.620Z,7.30
2018-09-14T23:59:39.808Z,7.07
